Time;durP1;ratioP1;P1;durP2;ratioP2;P2;SDS_P1;SDS_P2;PMS_P1;PMS_P2;Temp;Humidity;BMP_temperature;BMP_pressure;BME280_temperature;BME280_humidity;BME280_pressure;Samples;Min_cycle;Max_cycle;Signal;HPM_P1;HPM_P2
2023/04/13 00:02:24;;;;;;;4.60;1.33;;;;;;;5.77;93.91;99322.38;4989510;28;20031;-83
2023/04/13 00:04:50;;;;;;;4.15;1.20;;;;;;;5.76;94.01;99310.72;4974444;28;20038;-82
2023/04/13 00:07:17;;;;;;;5.65;1.20;;;;;;;5.74;94.67;99310.00;4989838;28;20030;-83
2023/04/13 00:09:46;;;;;;;1.77;1.55;;;;;;;5.73;94.53;99296.59;4990257;28;20034;-82
2023/04/13 00:12:13;;;;;;;1.42;1.17;;;;;;;5.74;94.74;99303.75;4983678;28;20498;-83
2023/04/13 00:14:39;;;;;;;1.65;0.85;;;;;;;5.74;94.79;99309.13;4989267;28;20105;-82
2023/04/13 00:17:04;;;;;;;3.35;1.15;;;;;;;5.75;95.27;99306.31;4997743;28;20486;-83
2023/04/13 00:19:33;;;;;;;2.67;1.25;;;;;;;5.74;95.00;99301.03;4975152;28;20052;-82
2023/04/13 00:21:59;;;;;;;3.30;1.45;;;;;;;5.76;95.48;99305.31;4990140;28;20096;-83
2023/04/13 00:24:25;;;;;;;1.10;0.95;;;;;;;5.81;95.97;99305.81;4974155;28;20042;-83
2023/04/13 00:26:53;;;;;;;2.95;1.10;;;;;;;5.83;95.55;99294.94;4979536;28;20040;-83
2023/04/13 00:29:20;;;;;;;4.63;1.10;;;;;;;5.86;95.03;99297.38;4976236;28;20062;-83
2023/04/13 00:31:45;;;;;;;2.85;1.00;;;;;;;5.91;96.00;99300.56;4972579;28;20069;-85
2023/04/13 00:34:11;;;;;;;2.15;1.05;;;;;;;5.88;96.09;99292.72;4983185;28;20564;-83
2023/04/13 00:36:36;;;;;;;2.92;1.52;;;;;;;5.89;96.66;99295.31;4954208;28;20470;-84
2023/04/13 00:39:02;;;;;;;2.47;1.20;;;;;;;5.92;97.19;99296.91;4970021;28;20086;-84
2023/04/13 00:41:28;;;;;;;4.53;1.58;;;;;;;5.92;97.69;99310.41;4964546;28;20038;-83
2023/04/13 00:43:53;;;;;;;3.72;1.40;;;;;;;5.91;98.04;99297.00;4973832;28;20038;-84
2023/04/13 00:46:19;;;;;;;2.95;1.60;;;;;;;5.88;98.64;99300.81;4986696;28;20036;-83
2023/04/13 00:48:47;;;;;;;4.43;1.25;;;;;;;5.91;99.31;99300.56;4996368;28;20034;-83
2023/04/13 00:51:15;;;;;;;5.43;1.10;;;;;;;5.87;98.57;99308.06;4995999;28;20399;-83
2023/04/13 00:53:42;;;;;;;4.20;1.30;;;;;;;5.89;99.74;99303.41;4990314;28;20089;-83
2023/04/13 00:56:08;;;;;;;4.55;1.77;;;;;;;5.92;99.86;99309.56;4970719;28;20096;-83
2023/04/13 00:58:35;;;;;;;4.63;1.05;;;;;;;5.93;99.47;99311.31;4989848;28;20038;-84
2023/04/13 01:01:01;;;;;;;3.78;1.35;;;;;;;5.90;99.68;99296.16;4988027;28;20489;-83
2023/04/13 01:03:28;;;;;;;3.13;1.27;;;;;;;5.91;99.63;99292.47;4989477;28;20125;-85
2023/04/13 01:06:09;;;;;;;3.10;1.00;;;;;;;5.91;99.30;99291.63;4973334;28;20022;-84
2023/04/13 01:08:44;;;;;;;3.42;1.58;;;;;;;5.94;99.04;99286.88;4973887;28;20041;-84
2023/04/13 01:11:22;;;;;;;4.72;1.05;;;;;;;5.98;99.71;99301.84;4989168;28;20026;-83
2023/04/13 01:13:55;;;;;;;1.77;1.23;;;;;;;5.97;99.03;99302.84;4973129;28;20038;-83
2023/04/13 01:16:31;;;;;;;4.00;1.30;;;;;;;5.95;99.80;99291.28;4982911;28;20371;-83
2023/04/13 01:18:58;;;;;;;2.22;1.00;;;;;;;5.97;100.00;99300.16;4977349;28;20386;-84
2023/04/13 01:21:27;;;;;;;3.38;1.20;;;;;;;5.96;99.78;99294.84;4972980;28;20042;-83
2023/04/13 01:24:15;;;;;;;4.43;1.40;;;;;;;5.99;99.89;99300.00;4973184;28;20431;-82
2023/04/13 01:27:06;;;;;;;3.75;1.40;;;;;;;5.97;99.87;99296.56;4977747;28;20219;-83
2023/04/13 01:29:35;;;;;;;3.95;1.52;;;;;;;5.98;100.00;99301.84;4989826;28;20038;-83
2023/04/13 01:32:01;;;;;;;4.53;1.20;;;;;;;5.98;99.92;99293.75;4968986;28;20015;-83
2023/04/13 01:34:27;;;;;;;5.47;1.33;;;;;;;5.98;99.78;99304.56;4983811;28;20541;-83
2023/04/13 01:36:53;;;;;;;1.80;1.10;;;;;;;6.05;100.00;99311.19;4973090;28;20394;-83
2023/04/13 01:39:19;;;;;;;2.17;1.88;;;;;;;6.06;100.00;99323.72;4989236;28;20121;-83
2023/04/13 01:41:46;;;;;;;6.78;1.45;;;;;;;5.92;100.00;99296.91;4972434;28;20022;-83
2023/04/13 01:44:12;;;;;;;2.47;1.10;;;;;;;6.05;100.00;99321.97;4971608;28;20049;-84
2023/04/13 01:46:45;;;;;;;3.80;1.00;;;;;;;6.03;100.00;99332.03;4975056;28;20027;-84
2023/04/13 01:49:29;;;;;;;5.68;0.90;;;;;;;6.07;100.00;99347.03;4982181;28;20453;-84
2023/04/13 01:52:17;;;;;;;4.40;1.35;;;;;;;6.08;100.00;99345.19;4976117;28;20081;-84
2023/04/13 01:54:45;;;;;;;4.28;1.25;;;;;;;6.07;100.00;99338.06;4973278;28;20379;-85
2023/04/13 01:57:12;;;;;;;4.60;1.20;;;;;;;6.05;100.00;99348.13;4999366;28;20065;-84
2023/04/13 01:59:38;;;;;;;10.43;1.70;;;;;;;6.06;100.00;99355.22;4972072;28;20065;-84
2023/04/13 02:02:03;;;;;;;5.60;1.38;;;;;;;6.02;100.00;99353.78;4987700;28;20454;-84
2023/04/13 02:04:30;;;;;;;2.67;1.10;;;;;;;6.01;100.00;99346.63;4972364;28;20033;-84
2023/04/13 02:06:57;;;;;;;4.28;1.30;;;;;;;6.04;100.00;99357.19;4988492;28;20018;-83
2023/04/13 02:09:32;;;;;;;5.07;1.77;;;;;;;6.03;100.00;99363.59;4989262;28;20140;-85
2023/04/13 02:11:57;;;;;;;4.70;1.20;;;;;;;6.04;100.00;99374.25;4995016;28;20034;-83
2023/04/13 02:14:22;;;;;;;3.13;1.30;;;;;;;6.05;100.00;99369.72;4988528;28;20045;-83
2023/04/13 02:16:48;;;;;;;4.78;1.55;;;;;;;6.03;100.00;99377.94;4980640;28;20060;-83
2023/04/13 02:19:14;;;;;;;4.20;1.33;;;;;;;5.89;100.00;99356.53;5004877;28;20034;-83
2023/04/13 02:21:40;;;;;;;6.57;1.63;;;;;;;6.00;100.00;99385.41;4973292;28;20035;-84
2023/04/13 02:24:06;;;;;;;3.00;1.67;;;;;;;5.98;100.00;99390.94;4988753;28;20390;-83
2023/04/13 02:26:32;;;;;;;5.45;1.60;;;;;;;6.02;100.00;99394.25;4988565;28;20038;-83
2023/04/13 02:28:58;;;;;;;3.45;1.85;;;;;;;6.00;100.00;99390.81;4987747;28;20698;-83
2023/04/13 02:31:23;;;;;;;4.38;1.23;;;;;;;6.01;100.00;99397.91;4972008;28;20089;-83
2023/04/13 02:33:50;;;;;;;5.22;1.60;;;;;;;5.97;100.00;99394.63;4995014;28;20378;-84
2023/04/13 02:36:17;;;;;;;5.60;1.88;;;;;;;6.04;100.00;99416.59;4972388;28;20498;-83
2023/04/13 02:39:09;;;;;;;3.20;1.38;;;;;;;6.03;100.00;99414.88;4989648;28;20461;-83
2023/04/13 02:41:34;;;;;;;4.32;1.48;;;;;;;6.03;100.00;99422.97;4988526;28;20054;-84
2023/04/13 02:44:00;;;;;;;6.65;2.00;;;;;;;6.06;100.00;99433.50;4971825;28;20331;-84
2023/04/13 02:46:31;;;;;;;6.82;1.60;;;;;;;6.05;100.00;99434.50;5016131;28;20035;-86
2023/04/13 02:49:02;;;;;;;4.97;2.00;;;;;;;6.06;100.00;99441.63;4973312;28;20394;-85
2023/04/13 02:51:33;;;;;;;10.13;2.83;;;;;;;6.00;100.00;99442.09;4972926;28;20081;-85
2023/04/13 02:54:01;;;;;;;5.40;1.92;;;;;;;6.04;100.00;99451.69;4974381;28;20206;-86
2023/04/13 02:56:29;;;;;;;6.07;1.85;;;;;;;6.06;100.00;99469.50;4975052;28;20458;-86
2023/04/13 02:58:57;;;;;;;4.88;1.63;;;;;;;6.02;100.00;99462.59;4988621;28;20030;-87
2023/04/13 03:01:23;;;;;;;4.22;1.63;;;;;;;6.01;100.00;99466.25;4987001;28;20049;-86
2023/04/13 03:03:50;;;;;;;6.47;2.47;;;;;;;6.00;100.00;99453.75;4971769;28;20418;-86
2023/04/13 03:06:16;;;;;;;5.65;2.67;;;;;;;6.03;100.00;99466.16;4987856;28;20030;-85
2023/04/13 03:08:50;;;;;;;3.45;1.85;;;;;;;6.00;100.00;99469.94;4973620;28;20073;-84
2023/04/13 03:11:20;;;;;;;6.05;1.73;;;;;;;5.99;100.00;99470.06;4986735;28;20041;-85
2023/04/13 03:13:52;;;;;;;4.00;1.80;;;;;;;5.98;100.00;99477.31;4972330;28;20375;-84
2023/04/13 03:16:19;;;;;;;5.97;1.80;;;;;;;6.00;100.00;99487.97;4964403;28;20041;-84
2023/04/13 03:18:46;;;;;;;5.13;1.60;;;;;;;5.92;100.00;99483.16;4975960;28;20544;-85
2023/04/13 03:21:13;;;;;;;3.55;1.70;;;;;;;5.88;100.00;99493.31;4991468;28;20487;-84
2023/04/13 03:23:46;;;;;;;2.13;1.00;;;;;;;5.80;100.00;99501.09;4992120;28;20045;-85
2023/04/13 03:26:13;;;;;;;2.92;1.30;;;;;;;5.71;100.00;99504.47;4974600;28;20026;-84
2023/04/13 03:28:39;;;;;;;4.57;1.85;;;;;;;5.61;100.00;99501.59;4975597;28;20107;-83
2023/04/13 03:31:05;;;;;;;3.15;1.60;;;;;;;5.56;100.00;99514.56;4990233;28;20034;-84
2023/04/13 03:33:34;;;;;;;3.03;2.05;;;;;;;5.54;100.00;99512.94;4983458;28;20030;-83
2023/04/13 03:36:02;;;;;;;7.03;2.95;;;;;;;5.49;100.00;99512.44;4976114;28;20176;-83
2023/04/13 03:38:32;;;;;;;9.65;3.42;;;;;;;5.49;100.00;99518.69;4976414;28;20379;-83
2023/04/13 03:40:57;;;;;;;4.30;2.75;;;;;;;5.45;100.00;99522.56;4974899;28;20177;-84
2023/04/13 03:43:25;;;;;;;9.10;3.45;;;;;;;5.46;100.00;99528.84;4981477;28;20367;-83
2023/04/13 03:45:59;;;;;;;10.27;3.22;;;;;;;5.44;100.00;99531.63;4977748;28;20318;-83
2023/04/13 03:48:25;;;;;;;6.55;2.92;;;;;;;5.40;100.00;99527.44;4998285;28;20038;-83
2023/04/13 03:50:50;;;;;;;12.02;3.38;;;;;;;5.34;100.00;99533.28;4985687;28;20023;-84
2023/04/13 03:53:21;;;;;;;7.55;3.35;;;;;;;5.37;100.00;99543.84;4976216;28;20065;-84
2023/04/13 03:55:47;;;;;;;11.43;3.92;;;;;;;5.38;100.00;99546.44;4974979;28;20053;-83
2023/04/13 03:58:13;;;;;;;6.90;3.92;;;;;;;5.34;100.00;99538.69;4975075;28;20391;-83
2023/04/13 04:00:39;;;;;;;5.43;3.22;;;;;;;5.38;100.00;99553.66;5009627;28;20061;-83
2023/04/13 04:03:11;;;;;;;6.82;4.10;;;;;;;5.41;100.00;99558.84;4975588;28;20022;-83
2023/04/13 04:05:50;;;;;;;7.00;4.00;;;;;;;5.42;100.00;99551.63;4991025;28;20077;-85
2023/04/13 04:08:16;;;;;;;11.40;3.90;;;;;;;5.42;100.00;99543.53;4984482;28;20058;-83
2023/04/13 04:10:42;;;;;;;9.23;4.45;;;;;;;5.43;100.00;99561.44;4987753;28;20490;-83
2023/04/13 04:13:08;;;;;;;12.55;5.25;;;;;;;5.43;100.00;99573.06;4992716;28;20022;-83
2023/04/13 04:15:39;;;;;;;8.90;4.45;;;;;;;5.39;100.00;99571.56;4976026;28;20042;-83
2023/04/13 04:18:05;;;;;;;11.27;4.57;;;;;;;5.33;100.00;99570.19;4988615;28;20034;-83
2023/04/13 04:20:30;;;;;;;8.55;3.85;;;;;;;5.38;100.00;99586.88;4974634;28;20030;-84
2023/04/13 04:22:59;;;;;;;5.60;3.55;;;;;;;5.34;100.00;99584.53;4976466;28;20038;-84
2023/04/13 04:25:27;;;;;;;8.80;3.83;;;;;;;5.39;100.00;99595.84;4989227;28;20058;-83
2023/04/13 04:27:56;;;;;;;11.52;4.43;;;;;;;5.37;100.00;99589.69;4984162;28;20031;-84
2023/04/13 04:30:23;;;;;;;6.30;4.05;;;;;;;5.32;100.00;99591.88;4974954;28;20034;-84
2023/04/13 04:32:53;;;;;;;11.93;4.10;;;;;;;5.30;100.00;99594.66;4981100;28;20498;-83
2023/04/13 04:35:20;;;;;;;9.43;3.67;;;;;;;5.29;100.00;99603.72;4976120;28;20432;-83
2023/04/13 04:37:51;;;;;;;7.32;3.65;;;;;;;5.26;100.00;99612.00;5002395;28;20101;-83
2023/04/13 04:40:17;;;;;;;9.30;4.45;;;;;;;5.21;100.00;99611.47;4992156;28;20054;-83
2023/04/13 04:42:43;;;;;;;5.43;3.67;;;;;;;5.16;100.00;99612.78;4976626;28;20489;-83
2023/04/13 04:45:21;;;;;;;6.82;3.10;;;;;;;5.07;100.00;99604.34;4973490;28;20031;-83
2023/04/13 04:47:51;;;;;;;8.80;3.53;;;;;;;5.07;100.00;99619.66;4973816;28;20363;-83
2023/04/13 04:50:24;;;;;;;8.45;3.65;;;;;;;5.11;100.00;99631.97;4991165;28;20080;-83
2023/04/13 04:52:56;;;;;;;6.90;3.55;;;;;;;5.10;100.00;99630.25;4993477;28;20446;-84
2023/04/13 04:55:23;;;;;;;6.65;3.90;;;;;;;5.05;100.00;99627.00;4997636;28;20461;-83
2023/04/13 04:57:48;;;;;;;8.57;3.63;;;;;;;5.04;100.00;99633.38;4991135;28;20034;-84
2023/04/13 05:00:15;;;;;;;9.82;4.00;;;;;;;5.05;100.00;99635.97;4973340;28;20022;-84
2023/04/13 05:02:49;;;;;;;7.05;4.18;;;;;;;5.08;100.00;99640.25;4974806;28;20711;-83
2023/04/13 05:05:15;;;;;;;10.02;4.53;;;;;;;5.12;100.00;99641.78;4973750;28;20402;-83
2023/04/13 05:07:41;;;;;;;7.47;4.28;;;;;;;5.24;100.00;99643.63;4990895;28;20070;-83
2023/04/13 05:10:08;;;;;;;7.32;4.35;;;;;;;5.31;100.00;99644.06;4984832;28;20021;-83
2023/04/13 05:12:37;;;;;;;7.05;4.53;;;;;;;5.43;100.00;99640.50;4985461;28;20066;-84
2023/04/13 05:15:03;;;;;;;9.13;4.75;;;;;;;5.50;100.00;99641.81;4970179;28;20077;-84
2023/04/13 05:17:29;;;;;;;9.40;5.07;;;;;;;5.53;100.00;99638.88;5003002;28;20041;-83
2023/04/13 05:19:55;;;;;;;8.73;4.72;;;;;;;5.54;100.00;99637.03;4992300;28;20037;-83
2023/04/13 05:22:25;;;;;;;10.02;4.68;;;;;;;5.60;100.00;99647.41;4994252;28;20072;-83
2023/04/13 05:24:56;;;;;;;14.57;5.18;;;;;;;5.64;100.00;99654.28;4994092;28;20122;-83
2023/04/13 05:27:22;;;;;;;7.18;4.60;;;;;;;5.67;100.00;99656.78;5000670;28;20057;-84
2023/04/13 05:29:48;;;;;;;9.93;4.78;;;;;;;5.68;100.00;99650.41;4970531;28;20459;-84
2023/04/13 05:32:18;;;;;;;11.80;4.50;;;;;;;5.82;100.00;99662.91;4972536;28;20030;-83
2023/04/13 05:34:45;;;;;;;7.22;4.22;;;;;;;5.92;100.00;99664.00;4985125;28;20143;-83
2023/04/13 05:37:15;;;;;;;14.02;4.68;;;;;;;6.00;100.00;99669.72;4993570;28;20121;-83
2023/04/13 05:39:42;;;;;;;8.82;4.68;;;;;;;5.91;100.00;99670.34;5008740;28;20133;-84
2023/04/13 05:42:08;;;;;;;8.68;3.90;;;;;;;5.97;100.00;99677.16;4979323;28;20471;-83
2023/04/13 05:44:38;;;;;;;6.78;3.65;;;;;;;6.13;100.00;99672.38;4972558;28;20030;-85
2023/04/13 05:47:04;;;;;;;10.30;4.13;;;;;;;6.17;100.00;99684.69;4982380;28;20466;-84
2023/04/13 05:49:31;;;;;;;5.45;3.67;;;;;;;6.23;100.00;99691.47;4977520;28;20035;-83
2023/04/13 05:51:57;;;;;;;6.00;3.53;;;;;;;6.32;100.00;99686.25;4969668;28;20042;-83
2023/04/13 05:54:33;;;;;;;8.85;2.88;;;;;;;6.38;100.00;99691.19;4954931;28;20037;-84
2023/04/13 05:56:58;;;;;;;8.85;2.72;;;;;;;6.42;100.00;99696.38;4995124;28;20042;-84
2023/04/13 05:59:24;;;;;;;9.82;2.75;;;;;;;6.40;100.00;99701.91;5009292;28;20029;-84
2023/04/13 06:01:50;;;;;;;8.98;3.00;;;;;;;6.36;100.00;99706.69;5007353;28;20037;-84
2023/04/13 06:04:16;;;;;;;6.70;2.75;;;;;;;6.32;100.00;99715.97;4998970;28;20045;-85
2023/04/13 06:06:43;;;;;;;4.22;2.15;;;;;;;6.31;100.00;99730.47;4988935;28;20041;-83
2023/04/13 06:09:10;;;;;;;10.57;2.47;;;;;;;6.23;100.00;99727.44;4973145;28;20050;-84
2023/04/13 06:11:36;;;;;;;8.63;2.20;;;;;;;6.22;100.00;99739.22;4984952;28;20061;-83
2023/04/13 06:14:02;;;;;;;7.82;2.30;;;;;;;6.22;100.00;99738.38;4969186;28;20038;-84
2023/04/13 06:16:27;;;;;;;3.75;2.05;;;;;;;6.19;100.00;99747.53;4971386;28;20129;-84
2023/04/13 06:18:53;;;;;;;7.47;2.25;;;;;;;6.18;100.00;99751.22;4967220;28;20030;-84
2023/04/13 06:21:19;;;;;;;6.60;2.40;;;;;;;6.19;100.00;99744.84;4969282;28;20035;-85
2023/04/13 06:23:45;;;;;;;4.38;2.13;;;;;;;6.24;100.00;99750.78;4969006;28;20031;-84
2023/04/13 06:26:19;;;;;;;5.20;2.83;;;;;;;6.32;100.00;99753.78;4981848;28;20556;-84
2023/04/13 06:28:52;;;;;;;8.57;3.13;;;;;;;6.37;100.00;99761.56;4992892;28;20448;-84
2023/04/13 06:31:19;;;;;;;4.57;2.80;;;;;;;6.42;100.00;99750.41;5002711;28;20037;-85
2023/04/13 06:33:46;;;;;;;5.20;2.80;;;;;;;6.47;100.00;99762.59;4973421;28;20038;-84
2023/04/13 06:36:12;;;;;;;5.43;2.78;;;;;;;6.47;100.00;99761.75;4988657;28;20109;-85
2023/04/13 06:38:38;;;;;;;6.40;3.20;;;;;;;6.40;100.00;99761.34;4972671;28;20192;-84
2023/04/13 06:41:08;;;;;;;5.93;3.47;;;;;;;6.46;100.00;99771.69;4988579;28;20026;-85
2023/04/13 06:43:37;;;;;;;3.67;2.50;;;;;;;6.48;100.00;99780.56;4989898;28;20405;-84
2023/04/13 06:46:22;;;;;;;6.25;3.00;;;;;;;6.53;100.00;99780.25;5000923;28;20026;-84
2023/04/13 06:48:50;;;;;;;7.17;2.67;;;;;;;6.58;100.00;99781.63;4981545;28;20176;-84
2023/04/13 06:51:19;;;;;;;5.38;2.88;;;;;;;6.60;100.00;99787.75;5011857;28;20247;-84
2023/04/13 06:53:44;;;;;;;5.60;2.42;;;;;;;6.65;100.00;99791.00;5011480;28;20412;-84
2023/04/13 06:56:10;;;;;;;4.97;2.92;;;;;;;6.70;100.00;99798.75;5003925;28;20081;-84
2023/04/13 06:58:35;;;;;;;6.25;2.40;;;;;;;6.78;100.00;99804.47;4974896;28;20128;-84
2023/04/13 07:01:01;;;;;;;8.00;3.00;;;;;;;6.78;100.00;99793.66;4991153;28;20036;-84
2023/04/13 07:03:29;;;;;;;9.30;3.83;;;;;;;6.79;100.00;99806.19;4993842;28;20232;-83
2023/04/13 07:05:54;;;;;;;6.00;2.65;;;;;;;6.79;100.00;99806.19;4993664;28;20034;-84
2023/04/13 07:08:20;;;;;;;9.00;2.67;;;;;;;6.84;100.00;99813.97;4994463;28;20355;-83
2023/04/13 07:10:51;;;;;;;9.88;3.00;;;;;;;6.87;100.00;99806.50;4991344;28;20057;-85
2023/04/13 07:13:25;;;;;;;8.57;2.53;;;;;;;6.94;100.00;99808.75;4976127;28;20035;-86
2023/04/13 07:15:52;;;;;;;8.43;2.70;;;;;;;7.00;99.85;99819.13;4989402;28;20041;-83
2023/04/13 07:18:17;;;;;;;4.00;2.42;;;;;;;7.05;99.89;99825.06;4973564;28;20390;-85
2023/04/13 07:20:43;;;;;;;7.35;2.50;;;;;;;7.13;99.04;99833.44;4990276;28;20041;-85
2023/04/13 07:23:09;;;;;;;8.13;2.67;;;;;;;7.23;99.50;99845.31;4974270;28;20390;-85
2023/04/13 07:25:34;;;;;;;5.60;2.50;;;;;;;7.21;97.91;99839.16;4973819;28;20137;-84
2023/04/13 07:28:00;;;;;;;8.93;3.40;;;;;;;7.25;98.38;99846.06;4990297;28;20067;-83
2023/04/13 07:30:26;;;;;;;9.98;2.80;;;;;;;7.24;98.95;99846.19;4992195;28;20394;-83
2023/04/13 07:32:52;;;;;;;7.75;2.75;;;;;;;7.29;98.61;99841.28;4992147;28;20045;-84
2023/04/13 07:35:19;;;;;;;7.72;2.63;;;;;;;7.32;97.98;99860.88;4991325;28;20028;-83
2023/04/13 07:37:48;;;;;;;9.65;3.30;;;;;;;7.36;97.68;99859.63;5010198;28;20040;-83
2023/04/13 07:40:14;;;;;;;7.32;2.05;;;;;;;7.43;97.30;99870.03;4993859;28;20033;-84
2023/04/13 07:42:44;;;;;;;10.80;2.58;;;;;;;7.47;97.71;99877.78;4993861;28;20397;-83
2023/04/13 07:45:09;;;;;;;8.70;3.05;;;;;;;7.50;97.52;99871.25;5009052;28;20029;-84
2023/04/13 07:47:35;;;;;;;12.20;3.15;;;;;;;7.61;97.13;99887.56;4991705;28;20029;-84
2023/04/13 07:50:06;;;;;;;9.95;3.35;;;;;;;7.70;97.57;99886.88;4989548;28;20027;-85
2023/04/13 07:52:32;;;;;;;7.82;3.00;;;;;;;7.75;95.99;99890.09;4989732;28;20088;-84
2023/04/13 07:54:57;;;;;;;7.97;3.40;;;;;;;7.82;96.06;99898.59;4937267;28;1048392;-84
2023/04/13 07:57:24;;;;;;;8.30;2.90;;;;;;;7.80;95.10;99901.44;4986491;28;20121;-84
2023/04/13 07:59:55;;;;;;;6.05;2.97;;;;;;;7.87;96.46;99901.81;4955581;28;20130;-84
2023/04/13 08:02:22;;;;;;;7.32;2.90;;;;;;;7.93;94.98;99914.91;4983908;28;20117;-85
2023/04/13 08:04:51;;;;;;;6.57;2.75;;;;;;;8.00;94.75;99907.16;5003628;28;20485;-83
2023/04/13 08:07:21;;;;;;;8.68;2.92;;;;;;;8.06;94.78;99914.81;4994546;28;20496;-84
2023/04/13 08:09:48;;;;;;;11.27;3.25;;;;;;;8.09;93.89;99917.28;4992124;28;20066;-84
2023/04/13 08:12:15;;;;;;;6.47;3.40;;;;;;;8.09;93.91;99917.28;4974358;28;20109;-83
2023/04/13 08:14:42;;;;;;;9.45;3.60;;;;;;;8.17;93.85;99923.00;4973729;28;20061;-86
2023/04/13 08:17:10;;;;;;;10.32;3.58;;;;;;;8.28;93.48;99919.44;4983811;28;20120;-84
2023/04/13 08:19:36;;;;;;;13.55;3.22;;;;;;;8.40;90.26;99929.38;4981983;28;20030;-84
2023/04/13 08:22:03;;;;;;;13.70;3.15;;;;;;;8.49;90.93;99925.09;4974225;28;20034;-85
2023/04/13 08:24:28;;;;;;;12.98;3.20;;;;;;;8.60;90.43;99933.22;4974013;28;20104;-84
2023/04/13 08:26:56;;;;;;;9.98;2.80;;;;;;;8.67;89.68;99929.91;4983550;28;20153;-85
2023/04/13 08:29:23;;;;;;;11.02;3.60;;;;;;;8.75;89.00;99944.69;5007718;28;20647;-85
2023/04/13 08:31:48;;;;;;;11.30;2.85;;;;;;;8.83;87.31;99939.53;4999039;28;20093;-86
2023/04/13 08:34:15;;;;;;;7.97;2.45;;;;;;;8.93;86.35;99957.66;4982327;28;20022;-85
2023/04/13 08:36:41;;;;;;;14.00;2.28;;;;;;;8.96;85.30;99961.13;5010497;28;20125;-83
2023/04/13 08:39:09;;;;;;;10.20;3.35;;;;;;;8.95;84.68;99962.94;4994089;28;20033;-83
2023/04/13 08:41:39;;;;;;;10.88;3.05;;;;;;;8.98;85.11;99962.72;4994054;28;20106;-83
2023/04/13 08:44:07;;;;;;;13.77;2.40;;;;;;;9.04;84.73;99970.34;4973047;28;20057;-84
2023/04/13 08:46:36;;;;;;;10.95;2.25;;;;;;;9.19;84.92;99985.41;4989446;28;20518;-84
2023/04/13 08:49:03;;;;;;;8.10;2.20;;;;;;;9.34;84.68;99971.59;4995388;28;20394;-85
2023/04/13 08:51:42;;;;;;;10.93;2.45;;;;;;;9.45;83.50;99979.72;5009372;28;20041;-84
2023/04/13 08:54:07;;;;;;;6.65;2.33;;;;;;;9.56;82.37;99982.44;4985480;28;20026;-84
2023/04/13 08:56:40;;;;;;;8.73;2.35;;;;;;;9.60;83.30;99981.16;4987338;28;20043;-85
2023/04/13 08:59:06;;;;;;;10.70;2.28;;;;;;;9.75;80.87;99994.50;4970197;28;20137;-83
2023/04/13 09:01:35;;;;;;;13.48;4.07;;;;;;;9.98;81.55;99998.88;4958651;28;20533;-86
2023/04/13 09:04:06;;;;;;;11.23;2.20;;;;;;;10.27;82.31;100004.59;5004747;28;20038;-85
2023/04/13 09:06:38;;;;;;;13.25;2.65;;;;;;;10.65;81.86;100009.47;4989064;28;20481;-86
2023/04/13 09:09:09;;;;;;;12.88;2.97;;;;;;;10.89;79.02;100013.78;4989229;28;20030;-86
2023/04/13 09:11:36;;;;;;;11.93;2.80;;;;;;;10.98;76.87;100007.53;4996329;28;20068;-84
2023/04/13 09:14:01;;;;;;;15.93;3.05;;;;;;;11.03;78.13;100016.16;5007457;28;20025;-85
2023/04/13 09:16:27;;;;;;;10.27;2.38;;;;;;;11.04;73.62;100017.00;4985618;28;20085;-83
2023/04/13 09:18:59;;;;;;;9.60;2.83;;;;;;;10.96;74.23;100017.72;4979639;28;20401;-83
2023/04/13 09:21:42;;;;;;;10.98;2.50;;;;;;;11.02;76.70;100030.78;5008917;28;20042;-83
2023/04/13 09:24:09;;;;;;;9.43;2.08;;;;;;;11.01;75.66;100037.22;5009047;28;20034;-84
2023/04/13 09:26:42;;;;;;;10.35;2.10;;;;;;;10.89;74.92;100046.44;4997080;28;20458;-84
2023/04/13 09:29:13;;;;;;;9.60;1.98;;;;;;;10.80;74.41;100036.34;4972815;28;20034;-86
2023/04/13 09:31:39;;;;;;;9.80;3.38;;;;;;;10.69;74.70;100046.31;5006999;28;20045;-84
2023/04/13 09:34:07;;;;;;;8.10;1.83;;;;;;;10.56;73.61;100042.03;5007099;28;20026;-85
2023/04/13 09:36:32;;;;;;;8.15;2.20;;;;;;;10.65;74.98;100060.31;5009020;28;20045;-84
2023/04/13 09:38:58;;;;;;;10.07;2.30;;;;;;;10.85;76.29;100066.75;5008863;28;20041;-83
2023/04/13 09:41:45;;;;;;;9.05;2.13;;;;;;;10.97;75.77;100076.59;4983957;28;20377;-84
2023/04/13 09:44:17;;;;;;;11.98;2.33;;;;;;;10.68;72.70;100069.06;4988025;28;20423;-84
2023/04/13 09:46:44;;;;;;;8.68;2.05;;;;;;;10.50;74.20;100086.94;4972068;28;20104;-83
2023/04/13 09:49:09;;;;;;;13.25;2.10;;;;;;;10.36;73.97;100087.25;4990813;28;20490;-85
2023/04/13 09:51:39;;;;;;;8.93;2.33;;;;;;;10.22;74.47;100088.38;4972605;28;20070;-82
2023/04/13 09:54:05;;;;;;;11.38;2.47;;;;;;;10.11;74.39;100099.25;4972599;28;20376;-83
2023/04/13 09:56:45;;;;;;;11.05;2.28;;;;;;;10.12;76.81;100106.44;4989524;28;20053;-84
2023/04/13 09:59:12;;;;;;;6.47;1.55;;;;;;;10.07;75.09;100103.19;4987538;28;20577;-83
2023/04/13 10:01:39;;;;;;;6.60;1.65;;;;;;;10.03;74.80;100102.59;4993133;28;20036;-84
2023/04/13 10:04:06;;;;;;;11.63;1.88;;;;;;;10.12;73.78;100110.00;5006668;28;20061;-85
2023/04/13 10:06:37;;;;;;;17.52;3.47;;;;;;;10.12;74.13;100117.31;4991794;28;20030;-86
2023/04/13 10:09:04;;;;;;;17.05;2.70;;;;;;;10.21;75.34;100125.56;5001061;28;20089;-84
2023/04/13 10:11:32;;;;;;;13.25;2.65;;;;;;;10.24;75.14;100119.03;4971768;28;20026;-84
2023/04/13 10:14:01;;;;;;;8.00;2.20;;;;;;;10.31;75.79;100143.88;4987621;28;20839;-84
2023/04/13 10:16:39;;;;;;;12.63;2.45;;;;;;;10.25;76.44;100130.75;4991546;28;20088;-83
2023/04/13 10:19:14;;;;;;;16.58;3.03;;;;;;;10.32;76.62;100137.44;5000790;28;20050;-84
2023/04/13 10:21:42;;;;;;;12.98;3.15;;;;;;;10.40;75.61;100145.81;4988044;28;20176;-82
2023/04/13 10:24:12;;;;;;;11.95;2.17;;;;;;;10.41;75.66;100155.69;4988542;28;20046;-84
2023/04/13 10:26:39;;;;;;;15.40;2.90;;;;;;;10.37;74.47;100152.38;4995756;28;20034;-83
2023/04/13 10:29:06;;;;;;;9.75;3.45;;;;;;;10.32;75.54;100156.47;4991381;28;20686;-83
2023/04/13 10:31:39;;;;;;;9.55;2.72;;;;;;;10.25;74.97;100164.25;4998190;28;20073;-84
2023/04/13 10:34:05;;;;;;;10.73;3.03;;;;;;;10.16;74.48;100171.25;4994216;28;20037;-83
2023/04/13 10:36:37;;;;;;;14.63;2.95;;;;;;;10.02;75.39;100176.09;4987667;28;20050;-84
2023/04/13 10:39:03;;;;;;;11.73;3.97;;;;;;;10.02;77.57;100167.94;4970023;28;20494;-83
2023/04/13 10:41:28;;;;;;;9.02;2.75;;;;;;;10.09;77.37;100174.63;4986167;28;20065;-83
2023/04/13 10:44:05;;;;;;;16.13;3.10;;;;;;;10.18;76.20;100180.16;4988854;28;20034;-84
2023/04/13 10:46:33;;;;;;;9.07;2.35;;;;;;;10.36;76.36;100182.41;4988141;28;20043;-82
2023/04/13 10:48:59;;;;;;;9.60;2.75;;;;;;;10.47;73.74;100188.69;4993435;28;20120;-84
2023/04/13 10:51:41;;;;;;;9.43;2.92;;;;;;;10.58;75.19;100176.03;5007187;28;20121;-84
2023/04/13 10:54:08;;;;;;;13.10;3.03;;;;;;;10.59;72.51;100196.81;4988029;28;20046;-84
2023/04/13 10:56:34;;;;;;;7.55;2.17;;;;;;;10.51;73.86;100193.88;4978613;28;20054;-83
2023/04/13 10:59:00;;;;;;;7.97;2.38;;;;;;;10.47;72.87;100204.13;5007630;28;20402;-83
2023/04/13 11:01:26;;;;;;;7.05;2.38;;;;;;;10.45;74.16;100203.41;4993677;28;20027;-82
2023/04/13 11:03:53;;;;;;;8.75;2.30;;;;;;;10.48;73.12;100209.44;4987550;28;20031;-84
2023/04/13 11:06:18;;;;;;;12.25;2.70;;;;;;;10.50;73.53;100214.78;4987115;28;20034;-84
2023/04/13 11:08:45;;;;;;;7.40;2.28;;;;;;;10.64;73.81;100222.66;4987563;28;20510;-83
2023/04/13 11:11:13;;;;;;;20.23;2.95;;;;;;;10.82;72.41;100222.97;4990649;28;20030;-83
2023/04/13 11:13:48;;;;;;;4.53;1.88;;;;;;;11.01;72.74;100230.47;5007279;28;20141;-83
2023/04/13 11:16:13;;;;;;;7.90;2.08;;;;;;;11.12;69.91;100221.38;4986404;28;20495;-84
2023/04/13 11:18:40;;;;;;;13.05;2.08;;;;;;;11.21;73.09;100217.88;4987200;28;20047;-82
2023/04/13 11:21:16;;;;;;;13.07;2.15;;;;;;;11.60;72.22;100220.88;4972066;28;20037;-83
2023/04/13 11:23:49;;;;;;;8.75;2.08;;;;;;;12.02;73.09;100223.59;4970851;28;20073;-84
2023/04/13 11:26:15;;;;;;;6.47;1.50;;;;;;;12.40;72.32;100226.53;4975267;28;20543;-82
2023/04/13 11:28:45;;;;;;;9.23;2.40;;;;;;;12.67;68.54;100220.41;5008338;28;20034;-84
2023/04/13 11:31:11;;;;;;;10.45;1.77;;;;;;;12.89;66.90;100230.22;4990690;28;20541;-83
2023/04/13 11:33:37;;;;;;;10.65;2.13;;;;;;;12.87;65.94;100221.31;4975729;28;20077;-83
2023/04/13 11:36:04;;;;;;;6.43;1.63;;;;;;;12.84;66.25;100226.19;4974473;28;20439;-83
2023/04/13 11:38:31;;;;;;;9.20;2.42;;;;;;;13.07;65.70;100226.81;4974929;28;20029;-82